sensor_id;sensor_type;location;lat;lon;timestamp;pressure;altitude;pressure_sealevel;temperature
82774;BMP280;72508;45.118;20.728;2024-01-11T00:07:17;101895.38;;;-0.87
82774;BMP280;72508;45.118;20.728;2024-01-11T00:17:19;101888.56;;;-0.74
82774;BMP280;72508;45.118;20.728;2024-01-11T00:27:21;101882.94;;;-0.66
82774;BMP280;72508;45.118;20.728;2024-01-11T00:37:46;101873.69;;;-0.69
82774;BMP280;72508;45.118;20.728;2024-01-11T00:47:48;101869.81;;;-0.76
82774;BMP280;72508;45.118;20.728;2024-01-11T00:57:50;101874.19;;;-0.64
82774;BMP280;72508;45.118;20.728;2024-01-11T01:07:52;101871.91;;;-0.68
82774;BMP280;72508;45.118;20.728;2024-01-11T01:17:54;101866.28;;;-0.61
82774;BMP280;72508;45.118;20.728;2024-01-11T01:27:56;101867.41;;;-0.65
82774;BMP280;72508;45.118;20.728;2024-01-11T01:37:58;101852.53;;;-0.60
82774;BMP280;72508;45.118;20.728;2024-01-11T01:48:00;101849.88;;;-0.72
82774;BMP280;72508;45.118;20.728;2024-01-11T01:58:03;101841.69;;;-0.93
82774;BMP280;72508;45.118;20.728;2024-01-11T02:08:07;101824.78;;;-0.98
82774;BMP280;72508;45.118;20.728;2024-01-11T02:28:49;101802.56;;;-1.27
82774;BMP280;72508;45.118;20.728;2024-01-11T02:38:52;101798.88;;;-1.23
82774;BMP280;72508;45.118;20.728;2024-01-11T02:48:56;101796.72;;;-1.15
82774;BMP280;72508;45.118;20.728;2024-01-11T02:58:58;101799.06;;;-1.12
82774;BMP280;72508;45.118;20.728;2024-01-11T03:09:00;101784.66;;;-1.00
82774;BMP280;72508;45.118;20.728;2024-01-11T03:19:02;101784.28;;;-1.08
82774;BMP280;72508;45.118;20.728;2024-01-11T03:29:04;101784.56;;;-1.13
82774;BMP280;72508;45.118;20.728;2024-01-11T03:39:05;101774.28;;;-1.27
82774;BMP280;72508;45.118;20.728;2024-01-11T03:49:08;101764.00;;;-1.13
82774;BMP280;72508;45.118;20.728;2024-01-11T03:59:10;101751.22;;;-1.14
82774;BMP280;72508;45.118;20.728;2024-01-11T04:09:12;101750.22;;;-1.12
82774;BMP280;72508;45.118;20.728;2024-01-11T04:19:14;101742.50;;;-1.12
82774;BMP280;72508;45.118;20.728;2024-01-11T04:29:16;101728.19;;;-1.16
82774;BMP280;72508;45.118;20.728;2024-01-11T04:39:17;101733.69;;;-1.22
82774;BMP280;72508;45.118;20.728;2024-01-11T04:49:19;101735.47;;;-1.23
82774;BMP280;72508;45.118;20.728;2024-01-11T04:59:21;101736.09;;;-1.33
82774;BMP280;72508;45.118;20.728;2024-01-11T05:09:22;101746.47;;;-1.35
82774;BMP280;72508;45.118;20.728;2024-01-11T05:19:24;101731.09;;;-1.37
82774;BMP280;72508;45.118;20.728;2024-01-11T05:29:26;101731.66;;;-1.46
82774;BMP280;72508;45.118;20.728;2024-01-11T05:39:28;101727.19;;;-1.57
82774;BMP280;72508;45.118;20.728;2024-01-11T05:49:30;101736.25;;;-1.65
82774;BMP280;72508;45.118;20.728;2024-01-11T05:59:46;101727.81;;;-1.67
82774;BMP280;72508;45.118;20.728;2024-01-11T06:09:48;101701.44;;;-1.85
82774;BMP280;72508;45.118;20.728;2024-01-11T06:19:49;101720.84;;;-1.65
82774;BMP280;72508;45.118;20.728;2024-01-11T06:29:51;101727.06;;;-1.55
82774;BMP280;72508;45.118;20.728;2024-01-11T06:39:53;101721.94;;;-1.55
82774;BMP280;72508;45.118;20.728;2024-01-11T06:49:55;101742.78;;;-1.45
82774;BMP280;72508;45.118;20.728;2024-01-11T06:59:56;101739.00;;;-1.54
82774;BMP280;72508;45.118;20.728;2024-01-11T07:09:58;101733.75;;;-1.38
82774;BMP280;72508;45.118;20.728;2024-01-11T07:20:00;101738.09;;;-1.39
82774;BMP280;72508;45.118;20.728;2024-01-11T07:30:02;101727.06;;;-1.55
82774;BMP280;72508;45.118;20.728;2024-01-11T07:40:05;101717.34;;;-1.36
82774;BMP280;72508;45.118;20.728;2024-01-11T07:50:11;101728.38;;;-1.19
82774;BMP280;72508;45.118;20.728;2024-01-11T08:00:13;101729.19;;;-1.19
82774;BMP280;72508;45.118;20.728;2024-01-11T08:10:15;101724.13;;;-1.06
82774;BMP280;72508;45.118;20.728;2024-01-11T08:20:17;101707.69;;;-1.03
82774;BMP280;72508;45.118;20.728;2024-01-11T08:30:19;101708.50;;;-1.03
82774;BMP280;72508;45.118;20.728;2024-01-11T08:40:21;101698.97;;;-1.01
82774;BMP280;72508;45.118;20.728;2024-01-11T08:50:32;101708.63;;;-1.19
82774;BMP280;72508;45.118;20.728;2024-01-11T09:11:23;101701.16;;;-1.09
82774;BMP280;72508;45.118;20.728;2024-01-11T09:21:26;101704.84;;;-1.13
82774;BMP280;72508;45.118;20.728;2024-01-11T09:31:27;101677.13;;;-1.08
82774;BMP280;72508;45.118;20.728;2024-01-11T09:41:30;101657.34;;;-1.07
82774;BMP280;72508;45.118;20.728;2024-01-11T09:51:34;101657.03;;;-1.15
82774;BMP280;72508;45.118;20.728;2024-01-11T10:01:39;101651.66;;;-1.12
82774;BMP280;72508;45.118;20.728;2024-01-11T10:11:41;101640.41;;;-0.97
82774;BMP280;72508;45.118;20.728;2024-01-11T10:21:43;101608.84;;;-1.26
82774;BMP280;72508;45.118;20.728;2024-01-11T10:31:44;101561.09;;;-1.30
82774;BMP280;72508;45.118;20.728;2024-01-11T10:41:49;101587.47;;;-1.14
82774;BMP280;72508;45.118;20.728;2024-01-11T10:52:12;101568.56;;;-1.13
82774;BMP280;72508;45.118;20.728;2024-01-11T11:02:16;101564.63;;;-1.19
82774;BMP280;72508;45.118;20.728;2024-01-11T11:12:32;101535.09;;;-1.40
82774;BMP280;72508;45.118;20.728;2024-01-11T11:22:35;101517.53;;;-1.19
82774;BMP280;72508;45.118;20.728;2024-01-11T11:33:17;101500.66;;;-1.10
82774;BMP280;72508;45.118;20.728;2024-01-11T11:43:20;101496.00;;;-1.31
82774;BMP280;72508;45.118;20.728;2024-01-11T11:53:22;101470.56;;;-1.36
82774;BMP280;72508;45.118;20.728;2024-01-11T12:03:45;101448.56;;;-1.40
82774;BMP280;72508;45.118;20.728;2024-01-11T12:13:53;101430.84;;;-1.44
82774;BMP280;72508;45.118;20.728;2024-01-11T12:23:57;101438.97;;;-1.50
82774;BMP280;72508;45.118;20.728;2024-01-11T12:33:59;101418.28;;;-1.62
82774;BMP280;72508;45.118;20.728;2024-01-11T12:44:01;101404.03;;;-1.40
82774;BMP280;72508;45.118;20.728;2024-01-11T12:54:03;101412.97;;;-1.46
82774;BMP280;72508;45.118;20.728;2024-01-11T13:04:08;101408.84;;;-1.48
82774;BMP280;72508;45.118;20.728;2024-01-11T13:14:11;101404.94;;;-1.54
82774;BMP280;72508;45.118;20.728;2024-01-11T13:24:33;101395.56;;;-1.55
82774;BMP280;72508;45.118;20.728;2024-01-11T13:34:36;101401.13;;;-1.61
82774;BMP280;72508;45.118;20.728;2024-01-11T13:44:38;101383.91;;;-1.74
82774;BMP280;72508;45.118;20.728;2024-01-11T13:54:40;101375.28;;;-1.72
82774;BMP280;72508;45.118;20.728;2024-01-11T14:04:42;101379.59;;;-1.86
82774;BMP280;72508;45.118;20.728;2024-01-11T14:14:44;101365.44;;;-1.79
82774;BMP280;72508;45.118;20.728;2024-01-11T14:24:46;101356.16;;;-1.81
82774;BMP280;72508;45.118;20.728;2024-01-11T14:35:08;101363.91;;;-1.96
82774;BMP280;72508;45.118;20.728;2024-01-11T14:45:10;101350.59;;;-2.15
82774;BMP280;72508;45.118;20.728;2024-01-11T14:55:12;101356.03;;;-2.20
82774;BMP280;72508;45.118;20.728;2024-01-11T15:05:14;101344.22;;;-2.09
82774;BMP280;72508;45.118;20.728;2024-01-11T15:15:16;101338.38;;;-2.12
82774;BMP280;72508;45.118;20.728;2024-01-11T15:25:17;101336.94;;;-2.16
82774;BMP280;72508;45.118;20.728;2024-01-11T15:35:19;101322.06;;;-2.10
82774;BMP280;72508;45.118;20.728;2024-01-11T15:45:41;101309.22;;;-1.98
82774;BMP280;72508;45.118;20.728;2024-01-11T15:55:43;101294.34;;;-2.05
82774;BMP280;72508;45.118;20.728;2024-01-11T16:05:44;101291.63;;;-2.17
82774;BMP280;72508;45.118;20.728;2024-01-11T16:15:46;101300.59;;;-2.09
82774;BMP280;72508;45.118;20.728;2024-01-11T16:25:47;101277.84;;;-2.01
82774;BMP280;72508;45.118;20.728;2024-01-11T16:35:50;101272.88;;;-2.04
82774;BMP280;72508;45.118;20.728;2024-01-11T16:45:51;101263.22;;;-2.14
82774;BMP280;72508;45.118;20.728;2024-01-11T16:56:13;101267.03;;;-2.06
82774;BMP280;72508;45.118;20.728;2024-01-11T17:06:15;101269.38;;;-2.03
82774;BMP280;72508;45.118;20.728;2024-01-11T17:16:20;101248.00;;;-2.17
82774;BMP280;72508;45.118;20.728;2024-01-11T17:26:22;101248.84;;;-2.16
82774;BMP280;72508;45.118;20.728;2024-01-11T17:36:23;101271.81;;;-2.15
82774;BMP280;72508;45.118;20.728;2024-01-11T17:46:28;101289.31;;;-1.94
82774;BMP280;72508;45.118;20.728;2024-01-11T17:56:29;101262.44;;;-2.01
82774;BMP280;72508;45.118;20.728;2024-01-11T18:06:32;101276.84;;;-1.86
82774;BMP280;72508;45.118;20.728;2024-01-11T18:16:34;101238.31;;;-1.86
82774;BMP280;72508;45.118;20.728;2024-01-11T18:26:38;101217.31;;;-2.05
82774;BMP280;72508;45.118;20.728;2024-01-11T18:36:44;101233.41;;;-2.29
82774;BMP280;72508;45.118;20.728;2024-01-11T18:46:47;101211.66;;;-2.23
82774;BMP280;72508;45.118;20.728;2024-01-11T18:57:09;101207.56;;;-2.00
82774;BMP280;72508;45.118;20.728;2024-01-11T19:07:11;101202.25;;;-1.97
82774;BMP280;72508;45.118;20.728;2024-01-11T19:17:33;101219.06;;;-2.06
82774;BMP280;72508;45.118;20.728;2024-01-11T19:27:35;101194.19;;;-2.18
82774;BMP280;72508;45.118;20.728;2024-01-11T19:37:37;101214.50;;;-2.28
82774;BMP280;72508;45.118;20.728;2024-01-11T19:47:39;101200.75;;;-2.27
82774;BMP280;72508;45.118;20.728;2024-01-11T19:57:40;101196.59;;;-2.42
82774;BMP280;72508;45.118;20.728;2024-01-11T20:07:43;101181.06;;;-2.26
82774;BMP280;72508;45.118;20.728;2024-01-11T20:17:45;101161.88;;;-2.61
82774;BMP280;72508;45.118;20.728;2024-01-11T20:27:46;101162.31;;;-2.41
82774;BMP280;72508;45.118;20.728;2024-01-11T20:37:48;101176.41;;;-2.61
82774;BMP280;72508;45.118;20.728;2024-01-11T20:47:50;101173.75;;;-2.60
82774;BMP280;72508;45.118;20.728;2024-01-11T20:57:52;101166.78;;;-2.58
82774;BMP280;72508;45.118;20.728;2024-01-11T21:07:54;101170.94;;;-2.42
82774;BMP280;72508;45.118;20.728;2024-01-11T21:17:57;101193.59;;;-2.22
82774;BMP280;72508;45.118;20.728;2024-01-11T21:27:58;101200.59;;;-1.98
82774;BMP280;72508;45.118;20.728;2024-01-11T21:38:00;101198.94;;;-1.99
82774;BMP280;72508;45.118;20.728;2024-01-11T21:48:04;101174.50;;;-1.92
82774;BMP280;72508;45.118;20.728;2024-01-11T21:58:06;101183.78;;;-1.77
82774;BMP280;72508;45.118;20.728;2024-01-11T22:08:07;101171.63;;;-1.62
82774;BMP280;72508;45.118;20.728;2024-01-11T22:18:29;101154.38;;;-1.72
82774;BMP280;72508;45.118;20.728;2024-01-11T22:28:39;101135.69;;;-1.75
82774;BMP280;72508;45.118;20.728;2024-01-11T22:38:40;101131.38;;;-1.74
82774;BMP280;72508;45.118;20.728;2024-01-11T22:48:42;101146.78;;;-1.87
82774;BMP280;72508;45.118;20.728;2024-01-11T22:58:44;101089.03;;;-1.94
82774;BMP280;72508;45.118;20.728;2024-01-11T23:08:46;101092.34;;;-1.92
82774;BMP280;72508;45.118;20.728;2024-01-11T23:18:48;101083.53;;;-1.88
82774;BMP280;72508;45.118;20.728;2024-01-11T23:29:05;101070.97;;;-1.93
82774;BMP280;72508;45.118;20.728;2024-01-11T23:49:48;101035.25;;;-1.96
82774;BMP280;72508;45.118;20.728;2024-01-11T23:59:50;101053.31;;;-1.97
